Aérodrome :
LOGIN :

S'inscrire | Disclaimer

   EN    FR    IT 

 










Légende :    VFR   VFR Marginal   IFR   IFR Intensif   IFR Très Intensif
Visi : 
Plafond : 
>= 8 km
>= 3000ft
5 à 8 km
1000 à 3000 ft
1500m à 5 km
500 à 1000 ft
800 à 1500m
200 à 500 ft
< 800m
< 200 ft
Symboles :   Orages  Brouillard  Fortes neiges  Fortes précipitations  Vent > 20 kt
SIGMETs :   Divers  Orages  Givrage  Turbulence  Onde Orograph.  Cendres Volcan.






- Altitude de l'aérodrome : 1504 ft
- Code IATA : PNA


LEPP - Noain Pamplona

DERNIER METAR :
  • 111930Z 32011KT 290V350 9999 FEW018 SCT030 BKN045 07/05 Q1017

METARs EXPIRÉS :
  • 111900Z 33007KT 9999 FEW018 SCT027 BKN035 07/05 Q1017
  • 111830Z 35006KT 9999 FEW018 SCT058 07/05 Q1017
  • 111800Z 33008KT 9999 FEW018 SCT037 BKN055 07/05 Q1017
  • 111730Z 32006KT 9999 FEW015 SCT025 BKN045 07/05 Q1016 RERA
  • 111700Z 33007KT 290V010 6000 2500S RA SCT015 SCT023 BKN035 07/05 Q1016

TAF TAF LEPP
Valide du 11 à 15h jusqu'au 12 à 15h UTC


111400Z 1115/1215 30012KT 8000 SCT015 BKN030 TX10/1212Z TN03/1206Z
TEMPO 1115/1118 33015G30KT
PROB40
TEMPO 1115/1207 3000 -RA BR
PROB40
TEMPO 1115/1207 3000 RA



MET'MAP, la Météo Aéronautique d'un coup d'oeil ! - Copyright ORBIFLY Décembre 2007 - Disclaimer

ORBIFLY MET'MAP TEAM :

Programmation & Développement : Alexandra Zaïnal
Conception & Développement : Baudouin d'Aumeries
Co-Programmation & Développement : Marc-Olivier Méhu
Soutien technique & logistique : Manuel Goepfert

Contact : metmap@orbifly.com




SOURCES & CREDITS :

   NOAA